sensor_id;sensor_type;location;lat;lon;timestamp;P1;durP1;ratioP1;P2;durP2;ratioP2
40489;SDS011;26196;52.302;10.572;2022-11-12T00:00:07;3.10;;;1.88;;
40489;SDS011;26196;52.302;10.572;2022-11-12T00:04:08;3.05;;;1.85;;
40489;SDS011;26196;52.302;10.572;2022-11-12T00:08:08;2.70;;;1.90;;
40489;SDS011;26196;52.302;10.572;2022-11-12T00:12:08;3.93;;;2.30;;
40489;SDS011;26196;52.302;10.572;2022-11-12T00:16:09;5.27;;;2.97;;
40489;SDS011;26196;52.302;10.572;2022-11-12T00:20:09;7.30;;;3.38;;
40489;SDS011;26196;52.302;10.572;2022-11-12T00:24:10;5.75;;;3.45;;
40489;SDS011;26196;52.302;10.572;2022-11-12T00:28:10;6.35;;;3.80;;
40489;SDS011;26196;52.302;10.572;2022-11-12T00:32:11;4.88;;;3.13;;
40489;SDS011;26196;52.302;10.572;2022-11-12T00:36:12;12.27;;;3.90;;
40489;SDS011;26196;52.302;10.572;2022-11-12T00:40:12;4.82;;;3.33;;
40489;SDS011;26196;52.302;10.572;2022-11-12T00:44:13;5.72;;;3.40;;
40489;SDS011;26196;52.302;10.572;2022-11-12T00:48:13;4.68;;;3.55;;
40489;SDS011;26196;52.302;10.572;2022-11-12T00:52:13;4.90;;;3.40;;
40489;SDS011;26196;52.302;10.572;2022-11-12T00:56:14;4.60;;;2.78;;
40489;SDS011;26196;52.302;10.572;2022-11-12T01:00:16;5.00;;;2.95;;
40489;SDS011;26196;52.302;10.572;2022-11-12T01:04:17;5.38;;;3.55;;
40489;SDS011;26196;52.302;10.572;2022-11-12T01:08:17;4.28;;;3.05;;
40489;SDS011;26196;52.302;10.572;2022-11-12T01:12:18;4.50;;;2.75;;
40489;SDS011;26196;52.302;10.572;2022-11-12T01:16:18;5.07;;;2.70;;
40489;SDS011;26196;52.302;10.572;2022-11-12T01:20:21;6.57;;;3.28;;
40489;SDS011;26196;52.302;10.572;2022-11-12T01:24:21;4.18;;;2.63;;
40489;SDS011;26196;52.302;10.572;2022-11-12T01:28:22;3.55;;;2.38;;
40489;SDS011;26196;52.302;10.572;2022-11-12T01:32:22;3.70;;;2.70;;
40489;SDS011;26196;52.302;10.572;2022-11-12T01:36:23;5.75;;;2.88;;
40489;SDS011;26196;52.302;10.572;2022-11-12T01:40:24;3.85;;;2.85;;
40489;SDS011;26196;52.302;10.572;2022-11-12T01:44:25;3.53;;;2.53;;
40489;SDS011;26196;52.302;10.572;2022-11-12T01:52:40;4.50;;;2.53;;
40489;SDS011;26196;52.302;10.572;2022-11-12T01:56:44;3.92;;;2.80;;
40489;SDS011;26196;52.302;10.572;2022-11-12T02:00:46;4.13;;;2.13;;
40489;SDS011;26196;52.302;10.572;2022-11-12T02:04:47;4.40;;;2.60;;
40489;SDS011;26196;52.302;10.572;2022-11-12T02:08:48;2.78;;;2.22;;
40489;SDS011;26196;52.302;10.572;2022-11-12T02:12:50;3.08;;;2.50;;
40489;SDS011;26196;52.302;10.572;2022-11-12T02:17:11;3.03;;;2.10;;
40489;SDS011;26196;52.302;10.572;2022-11-12T02:21:11;3.13;;;2.33;;
40489;SDS011;26196;52.302;10.572;2022-11-12T02:25:12;2.67;;;2.20;;
40489;SDS011;26196;52.302;10.572;2022-11-12T02:29:17;2.42;;;2.10;;
40489;SDS011;26196;52.302;10.572;2022-11-12T02:33:18;3.60;;;2.13;;
40489;SDS011;26196;52.302;10.572;2022-11-12T02:37:18;4.22;;;2.47;;
40489;SDS011;26196;52.302;10.572;2022-11-12T02:41:19;4.40;;;2.50;;
40489;SDS011;26196;52.302;10.572;2022-11-12T02:45:19;3.25;;;1.77;;
40489;SDS011;26196;52.302;10.572;2022-11-12T02:49:20;2.97;;;1.63;;
40489;SDS011;26196;52.302;10.572;2022-11-12T02:53:20;3.15;;;2.85;;
40489;SDS011;26196;52.302;10.572;2022-11-12T02:57:20;3.30;;;1.40;;
40489;SDS011;26196;52.302;10.572;2022-11-12T03:01:21;2.27;;;1.57;;
40489;SDS011;26196;52.302;10.572;2022-11-12T03:05:23;2.35;;;1.85;;
40489;SDS011;26196;52.302;10.572;2022-11-12T03:09:31;2.58;;;1.80;;
40489;SDS011;26196;52.302;10.572;2022-11-12T03:13:31;3.30;;;1.58;;
40489;SDS011;26196;52.302;10.572;2022-11-12T03:17:34;2.27;;;1.53;;
40489;SDS011;26196;52.302;10.572;2022-11-12T03:21:35;2.03;;;1.60;;
40489;SDS011;26196;52.302;10.572;2022-11-12T03:25:35;2.50;;;1.70;;
40489;SDS011;26196;52.302;10.572;2022-11-12T03:29:36;2.50;;;1.80;;
40489;SDS011;26196;52.302;10.572;2022-11-12T03:33:36;2.38;;;2.08;;
40489;SDS011;26196;52.302;10.572;2022-11-12T03:37:37;2.92;;;1.70;;
40489;SDS011;26196;52.302;10.572;2022-11-12T03:41:37;2.03;;;1.63;;
40489;SDS011;26196;52.302;10.572;2022-11-12T03:45:37;3.35;;;1.90;;
40489;SDS011;26196;52.302;10.572;2022-11-12T03:49:38;1.90;;;1.60;;
40489;SDS011;26196;52.302;10.572;2022-11-12T03:53:38;3.30;;;2.00;;
40489;SDS011;26196;52.302;10.572;2022-11-12T03:57:38;2.05;;;1.40;;
40489;SDS011;26196;52.302;10.572;2022-11-12T04:01:39;2.70;;;1.67;;
40489;SDS011;26196;52.302;10.572;2022-11-12T04:05:39;3.05;;;1.75;;
40489;SDS011;26196;52.302;10.572;2022-11-12T04:09:58;2.55;;;1.65;;
40489;SDS011;26196;52.302;10.572;2022-11-12T04:13:58;2.67;;;1.80;;
40489;SDS011;26196;52.302;10.572;2022-11-12T04:17:59;1.63;;;1.30;;
40489;SDS011;26196;52.302;10.572;2022-11-12T04:22:18;2.65;;;1.70;;
40489;SDS011;26196;52.302;10.572;2022-11-12T04:26:18;2.13;;;1.23;;
40489;SDS011;26196;52.302;10.572;2022-11-12T04:30:24;3.33;;;1.55;;
40489;SDS011;26196;52.302;10.572;2022-11-12T04:34:25;2.30;;;1.40;;
40489;SDS011;26196;52.302;10.572;2022-11-12T04:38:28;2.33;;;1.30;;
40489;SDS011;26196;52.302;10.572;2022-11-12T04:42:28;2.88;;;1.13;;
40489;SDS011;26196;52.302;10.572;2022-11-12T04:46:47;2.53;;;1.60;;
40489;SDS011;26196;52.302;10.572;2022-11-12T04:50:53;1.70;;;1.30;;
40489;SDS011;26196;52.302;10.572;2022-11-12T04:54:56;2.05;;;0.93;;
40489;SDS011;26196;52.302;10.572;2022-11-12T04:58:57;3.38;;;1.40;;
40489;SDS011;26196;52.302;10.572;2022-11-12T05:02:57;2.65;;;1.67;;
40489;SDS011;26196;52.302;10.572;2022-11-12T05:06:58;2.60;;;1.40;;
40489;SDS011;26196;52.302;10.572;2022-11-12T05:10:59;2.92;;;1.48;;
40489;SDS011;26196;52.302;10.572;2022-11-12T05:14:59;3.23;;;1.30;;
40489;SDS011;26196;52.302;10.572;2022-11-12T05:18:59;3.38;;;1.52;;
40489;SDS011;26196;52.302;10.572;2022-11-12T05:23:00;2.05;;;1.38;;
40489;SDS011;26196;52.302;10.572;2022-11-12T05:27:01;2.60;;;1.48;;
40489;SDS011;26196;52.302;10.572;2022-11-12T05:31:02;1.23;;;0.85;;
40489;SDS011;26196;52.302;10.572;2022-11-12T05:35:02;1.92;;;1.08;;
40489;SDS011;26196;52.302;10.572;2022-11-12T05:39:03;1.88;;;1.30;;
40489;SDS011;26196;52.302;10.572;2022-11-12T05:43:03;1.65;;;1.08;;
40489;SDS011;26196;52.302;10.572;2022-11-12T05:47:04;1.67;;;1.20;;
40489;SDS011;26196;52.302;10.572;2022-11-12T05:51:04;1.75;;;1.02;;
40489;SDS011;26196;52.302;10.572;2022-11-12T05:55:05;2.85;;;1.23;;
40489;SDS011;26196;52.302;10.572;2022-11-12T05:59:06;2.65;;;1.35;;
40489;SDS011;26196;52.302;10.572;2022-11-12T06:03:09;1.40;;;1.08;;
40489;SDS011;26196;52.302;10.572;2022-11-12T06:07:10;2.70;;;1.08;;
40489;SDS011;26196;52.302;10.572;2022-11-12T06:11:11;1.92;;;0.90;;
40489;SDS011;26196;52.302;10.572;2022-11-12T06:15:11;2.67;;;1.10;;
40489;SDS011;26196;52.302;10.572;2022-11-12T06:19:12;1.75;;;0.95;;
40489;SDS011;26196;52.302;10.572;2022-11-12T06:23:12;1.20;;;0.80;;
40489;SDS011;26196;52.302;10.572;2022-11-12T06:27:12;1.63;;;1.30;;
40489;SDS011;26196;52.302;10.572;2022-11-12T06:31:14;2.33;;;1.20;;
40489;SDS011;26196;52.302;10.572;2022-11-12T06:35:15;2.58;;;1.30;;
40489;SDS011;26196;52.302;10.572;2022-11-12T06:39:17;2.00;;;1.40;;
40489;SDS011;26196;52.302;10.572;2022-11-12T06:43:17;3.63;;;1.50;;
40489;SDS011;26196;52.302;10.572;2022-11-12T06:47:17;1.90;;;1.20;;
40489;SDS011;26196;52.302;10.572;2022-11-12T06:51:19;6.20;;;1.70;;
40489;SDS011;26196;52.302;10.572;2022-11-12T06:55:20;7.60;;;1.95;;
40489;SDS011;26196;52.302;10.572;2022-11-12T06:59:20;4.37;;;2.57;;
40489;SDS011;26196;52.302;10.572;2022-11-12T07:03:20;5.38;;;2.15;;
40489;SDS011;26196;52.302;10.572;2022-11-12T07:07:21;6.83;;;1.97;;
40489;SDS011;26196;52.302;10.572;2022-11-12T07:11:21;17.88;;;4.47;;
40489;SDS011;26196;52.302;10.572;2022-11-12T07:15:21;18.40;;;4.13;;
40489;SDS011;26196;52.302;10.572;2022-11-12T07:19:22;11.90;;;2.92;;
40489;SDS011;26196;52.302;10.572;2022-11-12T07:23:22;9.47;;;3.07;;
40489;SDS011;26196;52.302;10.572;2022-11-12T07:27:23;7.53;;;3.28;;
40489;SDS011;26196;52.302;10.572;2022-11-12T07:31:23;9.70;;;2.60;;
40489;SDS011;26196;52.302;10.572;2022-11-12T07:35:24;9.77;;;2.05;;
40489;SDS011;26196;52.302;10.572;2022-11-12T07:39:25;4.63;;;2.28;;
40489;SDS011;26196;52.302;10.572;2022-11-12T07:43:26;3.88;;;2.38;;
40489;SDS011;26196;52.302;10.572;2022-11-12T07:47:27;4.38;;;1.80;;
40489;SDS011;26196;52.302;10.572;2022-11-12T07:51:28;4.13;;;1.65;;
40489;SDS011;26196;52.302;10.572;2022-11-12T07:55:29;2.80;;;1.35;;
40489;SDS011;26196;52.302;10.572;2022-11-12T07:59:29;3.85;;;1.40;;
40489;SDS011;26196;52.302;10.572;2022-11-12T08:03:30;3.35;;;1.70;;
40489;SDS011;26196;52.302;10.572;2022-11-12T08:07:30;1.95;;;1.17;;
40489;SDS011;26196;52.302;10.572;2022-11-12T08:11:30;5.93;;;1.95;;
40489;SDS011;26196;52.302;10.572;2022-11-12T08:15:31;3.03;;;1.50;;
40489;SDS011;26196;52.302;10.572;2022-11-12T08:19:32;3.67;;;1.17;;
40489;SDS011;26196;52.302;10.572;2022-11-12T08:23:32;2.40;;;1.63;;
40489;SDS011;26196;52.302;10.572;2022-11-12T08:27:33;5.50;;;2.35;;
40489;SDS011;26196;52.302;10.572;2022-11-12T08:31:34;5.60;;;2.15;;
40489;SDS011;26196;52.302;10.572;2022-11-12T08:35:36;6.88;;;2.28;;
40489;SDS011;26196;52.302;10.572;2022-11-12T08:39:37;8.75;;;2.70;;
40489;SDS011;26196;52.302;10.572;2022-11-12T08:43:37;8.82;;;2.70;;
40489;SDS011;26196;52.302;10.572;2022-11-12T08:47:39;6.22;;;2.00;;
40489;SDS011;26196;52.302;10.572;2022-11-12T08:51:39;5.87;;;2.20;;
40489;SDS011;26196;52.302;10.572;2022-11-12T08:55:40;7.63;;;3.17;;
40489;SDS011;26196;52.302;10.572;2022-11-12T08:59:40;14.77;;;4.40;;
40489;SDS011;26196;52.302;10.572;2022-11-12T09:03:40;13.18;;;3.85;;
40489;SDS011;26196;52.302;10.572;2022-11-12T09:07:41;13.18;;;4.43;;
40489;SDS011;26196;52.302;10.572;2022-11-12T09:11:41;7.18;;;2.83;;
40489;SDS011;26196;52.302;10.572;2022-11-12T09:15:42;6.20;;;3.75;;
40489;SDS011;26196;52.302;10.572;2022-11-12T09:19:43;9.88;;;3.72;;
40489;SDS011;26196;52.302;10.572;2022-11-12T09:23:43;6.43;;;2.55;;
40489;SDS011;26196;52.302;10.572;2022-11-12T09:27:43;3.33;;;2.53;;
40489;SDS011;26196;52.302;10.572;2022-11-12T09:31:44;5.32;;;3.22;;
40489;SDS011;26196;52.302;10.572;2022-11-12T09:35:44;7.03;;;2.63;;
40489;SDS011;26196;52.302;10.572;2022-11-12T09:39:45;6.72;;;2.88;;
40489;SDS011;26196;52.302;10.572;2022-11-12T09:43:53;5.15;;;2.50;;
40489;SDS011;26196;52.302;10.572;2022-11-12T09:48:00;3.92;;;2.58;;
40489;SDS011;26196;52.302;10.572;2022-11-12T09:52:09;6.70;;;2.83;;
40489;SDS011;26196;52.302;10.572;2022-11-12T09:56:15;6.32;;;2.92;;
40489;SDS011;26196;52.302;10.572;2022-11-12T10:00:18;3.40;;;2.55;;
40489;SDS011;26196;52.302;10.572;2022-11-12T10:25:44;16.63;;;4.22;;
40489;SDS011;26196;52.302;10.572;2022-11-12T10:34:06;7.72;;;3.50;;
40489;SDS011;26196;52.302;10.572;2022-11-12T10:38:32;7.22;;;3.72;;
40489;SDS011;26196;52.302;10.572;2022-11-12T10:51:31;4.93;;;3.08;;
40489;SDS011;26196;52.302;10.572;2022-11-12T11:04:59;9.07;;;2.80;;
40489;SDS011;26196;52.302;10.572;2022-11-12T11:18:12;5.22;;;2.33;;
40489;SDS011;26196;52.302;10.572;2022-11-12T11:22:22;5.47;;;2.72;;
40489;SDS011;26196;52.302;10.572;2022-11-12T12:11:33;2.28;;;1.77;;
40489;SDS011;26196;52.302;10.572;2022-11-12T12:24:31;3.30;;;1.98;;
40489;SDS011;26196;52.302;10.572;2022-11-12T12:42:40;3.72;;;1.92;;
40489;SDS011;26196;52.302;10.572;2022-11-12T12:51:14;4.30;;;2.08;;
40489;SDS011;26196;52.302;10.572;2022-11-12T12:59:34;4.13;;;1.73;;
40489;SDS011;26196;52.302;10.572;2022-11-12T13:08:12;4.47;;;1.70;;
40489;SDS011;26196;52.302;10.572;2022-11-12T13:21:22;3.83;;;1.42;;
40489;SDS011;26196;52.302;10.572;2022-11-12T13:25:24;3.95;;;1.52;;
40489;SDS011;26196;52.302;10.572;2022-11-12T13:34:10;3.00;;;1.20;;
40489;SDS011;26196;52.302;10.572;2022-11-12T13:38:12;4.50;;;2.47;;
40489;SDS011;26196;52.302;10.572;2022-11-12T13:55:59;2.72;;;1.80;;
40489;SDS011;26196;52.302;10.572;2022-11-12T14:00:07;6.22;;;1.45;;
40489;SDS011;26196;52.302;10.572;2022-11-12T14:08:47;2.85;;;1.30;;
40489;SDS011;26196;52.302;10.572;2022-11-12T14:31:30;3.85;;;1.00;;
40489;SDS011;26196;52.302;10.572;2022-11-12T14:35:37;3.75;;;1.42;;
40489;SDS011;26196;52.302;10.572;2022-11-12T14:44:16;2.95;;;1.02;;
40489;SDS011;26196;52.302;10.572;2022-11-12T14:48:19;2.00;;;1.02;;
40489;SDS011;26196;52.302;10.572;2022-11-12T14:52:22;2.75;;;1.38;;
40489;SDS011;26196;52.302;10.572;2022-11-12T14:56:32;2.70;;;1.45;;
40489;SDS011;26196;52.302;10.572;2022-11-12T15:00:40;2.05;;;1.17;;
40489;SDS011;26196;52.302;10.572;2022-11-12T15:04:59;3.00;;;1.98;;
40489;SDS011;26196;52.302;10.572;2022-11-12T15:09:30;2.53;;;1.48;;
40489;SDS011;26196;52.302;10.572;2022-11-12T15:13:39;2.65;;;1.80;;
40489;SDS011;26196;52.302;10.572;2022-11-12T15:17:41;6.75;;;2.53;;
40489;SDS011;26196;52.302;10.572;2022-11-12T15:21:43;3.70;;;2.05;;
40489;SDS011;26196;52.302;10.572;2022-11-12T15:25:45;2.95;;;2.00;;
40489;SDS011;26196;52.302;10.572;2022-11-12T15:34:25;3.08;;;1.88;;
40489;SDS011;26196;52.302;10.572;2022-11-12T15:43:03;4.38;;;1.80;;
40489;SDS011;26196;52.302;10.572;2022-11-12T15:47:18;3.13;;;2.05;;
40489;SDS011;26196;52.302;10.572;2022-11-12T15:51:20;3.08;;;2.28;;
40489;SDS011;26196;52.302;10.572;2022-11-12T15:55:21;3.08;;;1.77;;
40489;SDS011;26196;52.302;10.572;2022-11-12T15:59:21;3.75;;;2.75;;
40489;SDS011;26196;52.302;10.572;2022-11-12T16:07:56;3.15;;;2.13;;
40489;SDS011;26196;52.302;10.572;2022-11-12T16:30:44;3.53;;;2.15;;
40489;SDS011;26196;52.302;10.572;2022-11-12T16:48:32;5.55;;;3.00;;
40489;SDS011;26196;52.302;10.572;2022-11-12T17:01:47;5.13;;;3.40;;
40489;SDS011;26196;52.302;10.572;2022-11-12T17:05:50;5.50;;;3.13;;
40489;SDS011;26196;52.302;10.572;2022-11-12T17:09:51;8.68;;;4.00;;
40489;SDS011;26196;52.302;10.572;2022-11-12T17:13:52;6.18;;;4.30;;
40489;SDS011;26196;52.302;10.572;2022-11-12T17:17:52;6.05;;;4.35;;
40489;SDS011;26196;52.302;10.572;2022-11-12T17:44:22;10.23;;;6.72;;
40489;SDS011;26196;52.302;10.572;2022-11-12T17:53:00;8.43;;;5.85;;
40489;SDS011;26196;52.302;10.572;2022-11-12T18:20:03;10.07;;;5.97;;
40489;SDS011;26196;52.302;10.572;2022-11-12T18:28:40;11.25;;;7.03;;
40489;SDS011;26196;52.302;10.572;2022-11-12T18:32:41;14.18;;;8.98;;
40489;SDS011;26196;52.302;10.572;2022-11-12T18:45:54;11.75;;;7.50;;
40489;SDS011;26196;52.302;10.572;2022-11-12T19:13:54;6.93;;;5.68;;
40489;SDS011;26196;52.302;10.572;2022-11-12T19:55:07;5.95;;;4.60;;
40489;SDS011;26196;52.302;10.572;2022-11-12T20:45:33;9.90;;;6.65;;
40489;SDS011;26196;52.302;10.572;2022-11-12T21:03:20;9.90;;;7.10;;
40489;SDS011;26196;52.302;10.572;2022-11-12T21:07:20;10.25;;;7.53;;
40489;SDS011;26196;52.302;10.572;2022-11-12T21:21:01;10.80;;;7.55;;
40489;SDS011;26196;52.302;10.572;2022-11-12T21:25:03;15.73;;;9.30;;
40489;SDS011;26196;52.302;10.572;2022-11-12T21:29:04;12.35;;;8.30;;
40489;SDS011;26196;52.302;10.572;2022-11-12T21:33:04;11.98;;;8.38;;
40489;SDS011;26196;52.302;10.572;2022-11-12T21:37:04;9.85;;;7.63;;
40489;SDS011;26196;52.302;10.572;2022-11-12T21:41:06;10.70;;;8.68;;
40489;SDS011;26196;52.302;10.572;2022-11-12T21:45:08;11.20;;;8.35;;
40489;SDS011;26196;52.302;10.572;2022-11-12T21:49:09;10.10;;;7.97;;
40489;SDS011;26196;52.302;10.572;2022-11-12T21:53:09;11.68;;;8.63;;
40489;SDS011;26196;52.302;10.572;2022-11-12T21:57:10;10.45;;;7.85;;
40489;SDS011;26196;52.302;10.572;2022-11-12T22:01:11;9.60;;;7.82;;
40489;SDS011;26196;52.302;10.572;2022-11-12T22:05:16;12.73;;;8.93;;
40489;SDS011;26196;52.302;10.572;2022-11-12T22:09:16;8.90;;;7.33;;
40489;SDS011;26196;52.302;10.572;2022-11-12T22:17:53;11.15;;;8.60;;
40489;SDS011;26196;52.302;10.572;2022-11-12T22:21:54;11.52;;;8.90;;
40489;SDS011;26196;52.302;10.572;2022-11-12T22:25:57;9.25;;;8.02;;
40489;SDS011;26196;52.302;10.572;2022-11-12T22:29:58;8.82;;;7.28;;
40489;SDS011;26196;52.302;10.572;2022-11-12T22:33:59;10.35;;;8.20;;
40489;SDS011;26196;52.302;10.572;2022-11-12T22:38:01;12.57;;;9.13;;
40489;SDS011;26196;52.302;10.572;2022-11-12T22:42:01;10.10;;;8.23;;
40489;SDS011;26196;52.302;10.572;2022-11-12T22:46:15;10.68;;;7.90;;
40489;SDS011;26196;52.302;10.572;2022-11-12T22:50:23;9.25;;;7.85;;
40489;SDS011;26196;52.302;10.572;2022-11-12T22:54:24;9.82;;;8.18;;
40489;SDS011;26196;52.302;10.572;2022-11-12T22:58:24;10.25;;;7.95;;
40489;SDS011;26196;52.302;10.572;2022-11-12T23:02:25;9.13;;;6.97;;
40489;SDS011;26196;52.302;10.572;2022-11-12T23:06:25;11.17;;;8.93;;
40489;SDS011;26196;52.302;10.572;2022-11-12T23:10:27;11.07;;;7.93;;
40489;SDS011;26196;52.302;10.572;2022-11-12T23:14:27;9.88;;;7.63;;
40489;SDS011;26196;52.302;10.572;2022-11-12T23:18:27;9.50;;;7.22;;
40489;SDS011;26196;52.302;10.572;2022-11-12T23:22:28;9.68;;;7.57;;
40489;SDS011;26196;52.302;10.572;2022-11-12T23:26:29;8.50;;;6.67;;
40489;SDS011;26196;52.302;10.572;2022-11-12T23:30:33;9.15;;;6.43;;
40489;SDS011;26196;52.302;10.572;2022-11-12T23:34:34;9.10;;;6.65;;
40489;SDS011;26196;52.302;10.572;2022-11-12T23:38:34;10.83;;;6.67;;
40489;SDS011;26196;52.302;10.572;2022-11-12T23:42:34;8.18;;;5.57;;
40489;SDS011;26196;52.302;10.572;2022-11-12T23:46:35;7.33;;;5.47;;
40489;SDS011;26196;52.302;10.572;2022-11-12T23:50:35;8.73;;;5.57;;
40489;SDS011;26196;52.302;10.572;2022-11-12T23:54:35;6.80;;;5.53;;
40489;SDS011;26196;52.302;10.572;2022-11-12T23:58:36;8.47;;;5.10;;
